Jamijarvi Airport


Codes: EFJM/
Name: Jamijarvi Airport
City: Jamijarvi
Country: Finland
Elevation: 505 ft.
Wikipedia:

Photos at Jamijarvi Airport


   Photos courtesy of SpottingLog. You can add your own sightings and photos by signing up for a free trial today.



No photos found.

Weather at Jamijarvi Airport


Time (UTC)DescriptionTempratureWindCloud coverageVisibilityPressureHumidity
18-Apr-2024 00:00Overcast Clouds-1°C4 mph, NE99%10000m1012hPa89%
18-Apr-2024 03:00Overcast Clouds-2°C4 mph, E90%10000m1013hPa88%
18-Apr-2024 06:00Overcast Clouds-1°C7 mph, E89%10000m1015hPa65%
18-Apr-2024 09:00Overcast Clouds2°C4 mph, NE93%10000m1015hPa48%
18-Apr-2024 12:00Broken Clouds4°C4 mph, NE81%10000m1015hPa40%
18-Apr-2024 15:00Broken Clouds4°C4 mph, NE82%10000m1015hPa38%
18-Apr-2024 18:00Broken Clouds-0°C7 mph, NE64%10000m1016hPa60%
18-Apr-2024 21:00Scattered Clouds-2°C4 mph, E39%10000m1016hPa72%
19-Apr-2024 00:00Few Clouds-3°C7 mph, E24%10000m1016hPa73%
19-Apr-2024 03:00Clear Sky-4°C7 mph, E4%10000m1015hPa74%
19-Apr-2024 06:00Clear Sky-2°C7 mph, NE8%10000m1014hPa57%
19-Apr-2024 09:00Scattered Clouds2°C9 mph, NE30%10000m1012hPa45%
19-Apr-2024 12:00Broken Clouds3°C9 mph, NE64%10000m1011hPa40%
19-Apr-2024 15:00Overcast Clouds2°C11 mph, NE100%10000m1010hPa46%
19-Apr-2024 18:00Overcast Clouds-1°C7 mph, NE100%10000m1010hPa60%
19-Apr-2024 21:00Overcast Clouds-2°C7 mph, NE100%10000m1010hPa67%
20-Apr-2024 00:00Overcast Clouds-3°C9 mph, N100%10000m1009hPa69%
20-Apr-2024 03:00Overcast Clouds-3°C9 mph, N100%10000m1009hPa67%
20-Apr-2024 06:00Overcast Clouds-3°C11 mph, N100%10000m1010hPa51%
20-Apr-2024 09:00Overcast Clouds-0°C9 mph, N100%10000m1012hPa36%
20-Apr-2024 12:00Overcast Clouds1°C9 mph, N100%10000m1014hPa29%
20-Apr-2024 15:00Overcast Clouds1°C9 mph, N100%10000m1017hPa34%
20-Apr-2024 18:00Overcast Clouds-2°C9 mph, N100%10000m1020hPa53%
20-Apr-2024 21:00Overcast Clouds-3°C7 mph, N100%10000m1023hPa68%
21-Apr-2024 00:00Overcast Clouds-4°C4 mph, N100%10000m1026hPa75%
21-Apr-2024 03:00Overcast Clouds-4°C4 mph, N100%10000m1028hPa77%
21-Apr-2024 06:00Overcast Clouds-1°C7 mph, NE99%10000m1031hPa63%
21-Apr-2024 09:00Overcast Clouds2°C7 mph, NE100%10000m1033hPa46%
21-Apr-2024 12:00Overcast Clouds4°C4 mph, NE99%10000m1034hPa38%
21-Apr-2024 15:00Overcast Clouds4°C7 mph, NE89%10000m1035hPa40%
21-Apr-2024 18:00Broken Clouds-1°C7 mph, NE66%10000m1036hPa65%
21-Apr-2024 21:00Few Clouds-2°C7 mph, E15%10000m1038hPa77%
22-Apr-2024 00:00Few Clouds-3°C4 mph, E22%10000m1038hPa88%
22-Apr-2024 03:00Few Clouds-4°C7 mph, NE14%10000m1037hPa89%
22-Apr-2024 06:00Scattered Clouds-1°C9 mph, NE37%10000m1036hPa59%
22-Apr-2024 09:00Broken Clouds3°C9 mph, NE66%10000m1034hPa44%
22-Apr-2024 12:00Scattered Clouds5°C9 mph, NE48%10000m1031hPa38%
22-Apr-2024 15:00Broken Clouds5°C9 mph, NE78%10000m1029hPa41%
22-Apr-2024 18:00Overcast Clouds0°C7 mph, NE89%10000m1028hPa58%
22-Apr-2024 21:00Overcast Clouds-2°C7 mph, NE88%10000m1026hPa72%